<?xml version="1.0" encoding="UTF-8" standalone="no" ?>
<gpx xmlns="http://www.topografix.com/GPX/1/1" xmlns:xsi="http://www.w3.org/2001/XMLSchema-instance" xsi:schemaLocation="http://www.topografix.com/GPX/1/1 http://www.topografix.com/GPX/1/1/gpx.xsd" version="1.1" creator="VisuGPX - https://www.visugpx.com">
  <metadata>
    <name>POLIONEZ/CX DU BANT/LUAIRE/ </name>
    <desc><![CDATA[superbe parcours très phyisique;
]]></desc>
  </metadata>
  <trk>
    <name><![CDATA[POLLIONAY... LES 4 COLS]]></name>
    <trkseg>
      <trkpt lat="45.76302" lon="4.66836">
        <ele>399.08</ele>
        <time>2014-11-22T13:00:28Z</time>
      </trkpt>
      <trkpt lat="45.76317" lon="4.66819">
        <ele>418.31</ele>
        <time>2014-11-22T13:05:52Z</time>
      </trkpt>
      <trkpt lat="45.76333" lon="4.66732">
        <ele>418.79</ele>
        <time>2014-11-22T13:15:05Z</time>
      </trkpt>
      <trkpt lat="45.76366" lon="4.66609">
        <ele>416.87</ele>
        <time>2014-11-22T13:15:23Z</time>
      </trkpt>
      <trkpt lat="45.76395" lon="4.66485">
        <ele>416.87</ele>
        <time>2014-11-22T13:15:42Z</time>
      </trkpt>
      <trkpt lat="45.7643" lon="4.66359">
        <ele>415.43</ele>
        <time>2014-11-22T13:16:08Z</time>
      </trkpt>
      <trkpt lat="45.76461" lon="4.66233">
        <ele>414.95</ele>
        <time>2014-11-22T13:16:31Z</time>
      </trkpt>
      <trkpt lat="45.76498" lon="4.66109">
        <ele>417.35</ele>
        <time>2014-11-22T13:17:01Z</time>
      </trkpt>
      <trkpt lat="45.76526" lon="4.65992">
        <ele>425.04</ele>
        <time>2014-11-22T13:17:47Z</time>
      </trkpt>
      <trkpt lat="45.76619" lon="4.65974">
        <ele>430.81</ele>
        <time>2014-11-22T13:18:28Z</time>
      </trkpt>
      <trkpt lat="45.76713" lon="4.65979">
        <ele>437.06</ele>
        <time>2014-11-22T13:19:10Z</time>
      </trkpt>
      <trkpt lat="45.768" lon="4.65936">
        <ele>447.15</ele>
        <time>2014-11-22T13:19:59Z</time>
      </trkpt>
      <trkpt lat="45.76807" lon="4.65807">
        <ele>451.48</ele>
        <time>2014-11-22T13:20:35Z</time>
      </trkpt>
      <trkpt lat="45.76775" lon="4.65682">
        <ele>454.36</ele>
        <time>2014-11-22T13:21:05Z</time>
      </trkpt>
      <trkpt lat="45.76739" lon="4.65557">
        <ele>458.69</ele>
        <time>2014-11-22T13:21:39Z</time>
      </trkpt>
      <trkpt lat="45.767" lon="4.65433">
        <ele>465.9</ele>
        <time>2014-11-22T13:22:20Z</time>
      </trkpt>
      <trkpt lat="45.76677" lon="4.65303">
        <ele>469.26</ele>
        <time>2014-11-22T13:22:53Z</time>
      </trkpt>
      <trkpt lat="45.76672" lon="4.65168">
        <ele>472.63</ele>
        <time>2014-11-22T13:23:23Z</time>
      </trkpt>
      <trkpt lat="45.7672" lon="4.65053">
        <ele>471.66</ele>
        <time>2014-11-22T13:24:49Z</time>
      </trkpt>
      <trkpt lat="45.76825" lon="4.65039">
        <ele>474.55</ele>
        <time>2014-11-22T13:25:21Z</time>
      </trkpt>
      <trkpt lat="45.76919" lon="4.64975">
        <ele>489.93</ele>
        <time>2014-11-22T13:27:11Z</time>
      </trkpt>
      <trkpt lat="45.76991" lon="4.64968">
        <ele>505.79</ele>
        <time>2014-11-22T13:28:41Z</time>
      </trkpt>
      <trkpt lat="45.76943" lon="4.64832">
        <ele>522.13</ele>
        <time>2014-11-22T13:30:19Z</time>
      </trkpt>
      <trkpt lat="45.76976" lon="4.64678">
        <ele>539.44</ele>
        <time>2014-11-22T13:33:45Z</time>
      </trkpt>
      <trkpt lat="45.77051" lon="4.6455">
        <ele>560.59</ele>
        <time>2014-11-22T13:36:33Z</time>
      </trkpt>
      <trkpt lat="45.77098" lon="4.64326">
        <ele>581.73</ele>
        <time>2014-11-22T13:39:27Z</time>
      </trkpt>
      <trkpt lat="45.77156" lon="4.64159">
        <ele>596.15</ele>
        <time>2014-11-22T13:42:36Z</time>
      </trkpt>
      <trkpt lat="45.77274" lon="4.64197">
        <ele>601.92</ele>
        <time>2014-11-22T13:43:48Z</time>
      </trkpt>
      <trkpt lat="45.77366" lon="4.6412">
        <ele>601.44</ele>
        <time>2014-11-22T13:44:22Z</time>
      </trkpt>
      <trkpt lat="45.77441" lon="4.63988">
        <ele>599.52</ele>
        <time>2014-11-22T13:45:01Z</time>
      </trkpt>
      <trkpt lat="45.77544" lon="4.63926">
        <ele>600.96</ele>
        <time>2014-11-22T13:45:31Z</time>
      </trkpt>
      <trkpt lat="45.77534" lon="4.63804">
        <ele>618.75</ele>
        <time>2014-11-22T13:47:44Z</time>
      </trkpt>
      <trkpt lat="45.77396" lon="4.6381">
        <ele>650.47</ele>
        <time>2014-11-22T13:51:51Z</time>
      </trkpt>
      <trkpt lat="45.77235" lon="4.63779">
        <ele>669.22</ele>
        <time>2014-11-22T13:54:27Z</time>
      </trkpt>
      <trkpt lat="45.7709" lon="4.63709">
        <ele>699.02</ele>
        <time>2014-11-22T13:59:06Z</time>
      </trkpt>
      <trkpt lat="45.76945" lon="4.63654">
        <ele>716.8</ele>
        <time>2014-11-22T14:01:48Z</time>
      </trkpt>
      <trkpt lat="45.76876" lon="4.6352">
        <ele>721.61</ele>
        <time>2014-11-22T14:06:09Z</time>
      </trkpt>
      <trkpt lat="45.76827" lon="4.63369">
        <ele>728.34</ele>
        <time>2014-11-22T14:07:04Z</time>
      </trkpt>
      <trkpt lat="45.7676" lon="4.63249">
        <ele>733.62</ele>
        <time>2014-11-22T14:07:56Z</time>
      </trkpt>
      <trkpt lat="45.76687" lon="4.6314">
        <ele>733.14</ele>
        <time>2014-11-22T14:08:33Z</time>
      </trkpt>
      <trkpt lat="45.76596" lon="4.63081">
        <ele>736.99</ele>
        <time>2014-11-22T14:09:02Z</time>
      </trkpt>
      <trkpt lat="45.76495" lon="4.63093">
        <ele>735.55</ele>
        <time>2014-11-22T14:09:33Z</time>
      </trkpt>
      <trkpt lat="45.76381" lon="4.63043">
        <ele>736.51</ele>
        <time>2014-11-22T14:10:07Z</time>
      </trkpt>
      <trkpt lat="45.76295" lon="4.62955">
        <ele>728.34</ele>
        <time>2014-11-22T14:10:27Z</time>
      </trkpt>
      <trkpt lat="45.76217" lon="4.62887">
        <ele>730.74</ele>
        <time>2014-11-22T14:11:38Z</time>
      </trkpt>
      <trkpt lat="45.76122" lon="4.62799">
        <ele>737.47</ele>
        <time>2014-11-22T14:12:36Z</time>
      </trkpt>
      <trkpt lat="45.76068" lon="4.62795">
        <ele>748.52</ele>
        <time>2014-11-22T14:13:56Z</time>
      </trkpt>
      <trkpt lat="45.76135" lon="4.62666">
        <ele>756.21</ele>
        <time>2014-11-22T14:14:59Z</time>
      </trkpt>
      <trkpt lat="45.76026" lon="4.62701">
        <ele>765.35</ele>
        <time>2014-11-22T14:16:24Z</time>
      </trkpt>
      <trkpt lat="45.7594" lon="4.62825">
        <ele>770.63</ele>
        <time>2014-11-22T14:17:19Z</time>
      </trkpt>
      <trkpt lat="45.7584" lon="4.62826">
        <ele>770.63</ele>
        <time>2014-11-22T14:17:57Z</time>
      </trkpt>
      <trkpt lat="45.75754" lon="4.62777">
        <ele>770.63</ele>
        <time>2014-11-22T14:18:26Z</time>
      </trkpt>
      <trkpt lat="45.75719" lon="4.62653">
        <ele>774.48</ele>
        <time>2014-11-22T14:19:02Z</time>
      </trkpt>
      <trkpt lat="45.75708" lon="4.62521">
        <ele>776.4</ele>
        <time>2014-11-22T14:19:33Z</time>
      </trkpt>
      <trkpt lat="45.75701" lon="4.62391">
        <ele>777.36</ele>
        <time>2014-11-22T14:19:59Z</time>
      </trkpt>
      <trkpt lat="45.75685" lon="4.62253">
        <ele>776.88</ele>
        <time>2014-11-22T14:20:33Z</time>
      </trkpt>
      <trkpt lat="45.75676" lon="4.62108">
        <ele>778.81</ele>
        <time>2014-11-22T14:21:09Z</time>
      </trkpt>
      <trkpt lat="45.7566" lon="4.61963">
        <ele>777.84</ele>
        <time>2014-11-22T14:21:36Z</time>
      </trkpt>
      <trkpt lat="45.75625" lon="4.61826">
        <ele>772.56</ele>
        <time>2014-11-22T14:22:00Z</time>
      </trkpt>
      <trkpt lat="45.75548" lon="4.61747">
        <ele>776.4</ele>
        <time>2014-11-22T14:22:57Z</time>
      </trkpt>
      <trkpt lat="45.75453" lon="4.61656">
        <ele>788.42</ele>
        <time>2014-11-22T14:24:20Z</time>
      </trkpt>
      <trkpt lat="45.75339" lon="4.61597">
        <ele>794.67</ele>
        <time>2014-11-22T14:25:34Z</time>
      </trkpt>
      <trkpt lat="45.75273" lon="4.61505">
        <ele>790.34</ele>
        <time>2014-11-22T14:29:22Z</time>
      </trkpt>
      <trkpt lat="45.75263" lon="4.61361">
        <ele>784.09</ele>
        <time>2014-11-22T14:29:38Z</time>
      </trkpt>
      <trkpt lat="45.75238" lon="4.61221">
        <ele>776.88</ele>
        <time>2014-11-22T14:29:54Z</time>
      </trkpt>
      <trkpt lat="45.7517" lon="4.61125">
        <ele>773.04</ele>
        <time>2014-11-22T14:30:11Z</time>
      </trkpt>
      <trkpt lat="45.751" lon="4.61036">
        <ele>768.23</ele>
        <time>2014-11-22T14:30:32Z</time>
      </trkpt>
      <trkpt lat="45.75009" lon="4.61049">
        <ele>770.63</ele>
        <time>2014-11-22T14:30:56Z</time>
      </trkpt>
      <trkpt lat="45.74912" lon="4.61102">
        <ele>762.94</ele>
        <time>2014-11-22T14:31:26Z</time>
      </trkpt>
      <trkpt lat="45.74814" lon="4.61153">
        <ele>748.52</ele>
        <time>2014-11-22T14:32:13Z</time>
      </trkpt>
      <trkpt lat="45.74749" lon="4.61117">
        <ele>744.2</ele>
        <time>2014-11-22T14:37:19Z</time>
      </trkpt>
      <trkpt lat="45.74678" lon="4.61036">
        <ele>738.91</ele>
        <time>2014-11-22T14:37:32Z</time>
      </trkpt>
      <trkpt lat="45.74615" lon="4.6093">
        <ele>733.14</ele>
        <time>2014-11-22T14:37:45Z</time>
      </trkpt>
      <trkpt lat="45.74555" lon="4.60827">
        <ele>736.03</ele>
        <time>2014-11-22T14:38:08Z</time>
      </trkpt>
      <trkpt lat="45.74482" lon="4.60705">
        <ele>749.49</ele>
        <time>2014-11-22T14:39:51Z</time>
      </trkpt>
      <trkpt lat="45.74349" lon="4.60606">
        <ele>770.15</ele>
        <time>2014-11-22T14:42:36Z</time>
      </trkpt>
      <trkpt lat="45.74225" lon="4.6052">
        <ele>793.22</ele>
        <time>2014-11-22T14:45:49Z</time>
      </trkpt>
      <trkpt lat="45.74146" lon="4.60354">
        <ele>817.74</ele>
        <time>2014-11-22T14:50:32Z</time>
      </trkpt>
      <trkpt lat="45.74077" lon="4.60341">
        <ele>836</ele>
        <time>2014-11-22T14:52:44Z</time>
      </trkpt>
      <trkpt lat="45.7398" lon="4.60311">
        <ele>843.21</ele>
        <time>2014-11-22T14:56:04Z</time>
      </trkpt>
      <trkpt lat="45.73897" lon="4.60257">
        <ele>840.81</ele>
        <time>2014-11-22T14:56:25Z</time>
      </trkpt>
      <trkpt lat="45.7379" lon="4.60207">
        <ele>836</ele>
        <time>2014-11-22T14:57:06Z</time>
      </trkpt>
      <trkpt lat="45.73719" lon="4.60117">
        <ele>836.96</ele>
        <time>2014-11-22T14:57:45Z</time>
      </trkpt>
      <trkpt lat="45.73651" lon="4.60025">
        <ele>831.2</ele>
        <time>2014-11-22T14:58:11Z</time>
      </trkpt>
      <trkpt lat="45.73596" lon="4.59906">
        <ele>812.93</ele>
        <time>2014-11-22T14:58:45Z</time>
      </trkpt>
      <trkpt lat="45.73547" lon="4.59791">
        <ele>796.11</ele>
        <time>2014-11-22T14:59:26Z</time>
      </trkpt>
      <trkpt lat="45.73495" lon="4.59678">
        <ele>782.65</ele>
        <time>2014-11-22T14:59:51Z</time>
      </trkpt>
      <trkpt lat="45.7346" lon="4.59555">
        <ele>779.77</ele>
        <time>2014-11-22T15:00:06Z</time>
      </trkpt>
      <trkpt lat="45.73418" lon="4.59437">
        <ele>779.77</ele>
        <time>2014-11-22T15:00:22Z</time>
      </trkpt>
      <trkpt lat="45.73354" lon="4.5942">
        <ele>774.48</ele>
        <time>2014-11-22T15:02:33Z</time>
      </trkpt>
      <trkpt lat="45.73282" lon="4.59526">
        <ele>780.73</ele>
        <time>2014-11-22T15:03:25Z</time>
      </trkpt>
      <trkpt lat="45.73195" lon="4.59561">
        <ele>785.05</ele>
        <time>2014-11-22T15:04:15Z</time>
      </trkpt>
      <trkpt lat="45.7311" lon="4.59504">
        <ele>786.98</ele>
        <time>2014-11-22T15:05:00Z</time>
      </trkpt>
      <trkpt lat="45.73025" lon="4.59488">
        <ele>797.07</ele>
        <time>2014-11-22T15:06:59Z</time>
      </trkpt>
      <trkpt lat="45.72913" lon="4.59421">
        <ele>811.97</ele>
        <time>2014-11-22T15:09:29Z</time>
      </trkpt>
      <trkpt lat="45.7281" lon="4.59335">
        <ele>821.58</ele>
        <time>2014-11-22T15:10:51Z</time>
      </trkpt>
      <trkpt lat="45.72711" lon="4.59274">
        <ele>823.99</ele>
        <time>2014-11-22T15:11:41Z</time>
      </trkpt>
      <trkpt lat="45.72593" lon="4.59232">
        <ele>827.83</ele>
        <time>2014-11-22T15:12:47Z</time>
      </trkpt>
      <trkpt lat="45.72474" lon="4.59249">
        <ele>831.68</ele>
        <time>2014-11-22T15:13:42Z</time>
      </trkpt>
      <trkpt lat="45.72363" lon="4.59271">
        <ele>840.81</ele>
        <time>2014-11-22T15:14:57Z</time>
      </trkpt>
      <trkpt lat="45.72273" lon="4.59292">
        <ele>845.62</ele>
        <time>2014-11-22T15:17:11Z</time>
      </trkpt>
      <trkpt lat="45.722" lon="4.5922">
        <ele>846.58</ele>
        <time>2014-11-22T15:17:59Z</time>
      </trkpt>
      <trkpt lat="45.72107" lon="4.59212">
        <ele>835.04</ele>
        <time>2014-11-22T15:18:22Z</time>
      </trkpt>
      <trkpt lat="45.72028" lon="4.59129">
        <ele>827.83</ele>
        <time>2014-11-22T15:18:33Z</time>
      </trkpt>
      <trkpt lat="45.71943" lon="4.59071">
        <ele>823.03</ele>
        <time>2014-11-22T15:18:45Z</time>
      </trkpt>
      <trkpt lat="45.71859" lon="4.59082">
        <ele>815.34</ele>
        <time>2014-11-22T15:19:02Z</time>
      </trkpt>
      <trkpt lat="45.71787" lon="4.59154">
        <ele>805.24</ele>
        <time>2014-11-22T15:19:13Z</time>
      </trkpt>
      <trkpt lat="45.71709" lon="4.59208">
        <ele>791.78</ele>
        <time>2014-11-22T15:21:05Z</time>
      </trkpt>
      <trkpt lat="45.71636" lon="4.5926">
        <ele>780.25</ele>
        <time>2014-11-22T15:21:28Z</time>
      </trkpt>
      <trkpt lat="45.7159" lon="4.5935">
        <ele>770.15</ele>
        <time>2014-11-22T15:21:52Z</time>
      </trkpt>
      <trkpt lat="45.71547" lon="4.59438">
        <ele>758.14</ele>
        <time>2014-11-22T15:23:04Z</time>
      </trkpt>
      <trkpt lat="45.71499" lon="4.59317">
        <ele>737.95</ele>
        <time>2014-11-22T15:23:36Z</time>
      </trkpt>
      <trkpt lat="45.71493" lon="4.59192">
        <ele>724.49</ele>
        <time>2014-11-22T15:24:00Z</time>
      </trkpt>
      <trkpt lat="45.71455" lon="4.59093">
        <ele>721.61</ele>
        <time>2014-11-22T15:25:19Z</time>
      </trkpt>
      <trkpt lat="45.7136" lon="4.59097">
        <ele>713.92</ele>
        <time>2014-11-22T15:25:37Z</time>
      </trkpt>
      <trkpt lat="45.71344" lon="4.59125">
        <ele>702.38</ele>
        <time>2014-11-22T15:25:54Z</time>
      </trkpt>
      <trkpt lat="45.71419" lon="4.59201">
        <ele>697.09</ele>
        <time>2014-11-22T15:26:06Z</time>
      </trkpt>
      <trkpt lat="45.71408" lon="4.59331">
        <ele>695.17</ele>
        <time>2014-11-22T15:26:23Z</time>
      </trkpt>
      <trkpt lat="45.71417" lon="4.59465">
        <ele>694.69</ele>
        <time>2014-11-22T15:26:41Z</time>
      </trkpt>
      <trkpt lat="45.71412" lon="4.59605">
        <ele>694.21</ele>
        <time>2014-11-22T15:27:01Z</time>
      </trkpt>
      <trkpt lat="45.71457" lon="4.59724">
        <ele>693.73</ele>
        <time>2014-11-22T15:27:24Z</time>
      </trkpt>
      <trkpt lat="45.71534" lon="4.59803">
        <ele>693.25</ele>
        <time>2014-11-22T15:27:50Z</time>
      </trkpt>
      <trkpt lat="45.71633" lon="4.59754">
        <ele>693.73</ele>
        <time>2014-11-22T15:28:23Z</time>
      </trkpt>
      <trkpt lat="45.71733" lon="4.59712">
        <ele>694.69</ele>
        <time>2014-11-22T15:28:47Z</time>
      </trkpt>
      <trkpt lat="45.71863" lon="4.59659">
        <ele>691.81</ele>
        <time>2014-11-22T15:29:25Z</time>
      </trkpt>
      <trkpt lat="45.71907" lon="4.59775">
        <ele>691.81</ele>
        <time>2014-11-22T15:30:00Z</time>
      </trkpt>
      <trkpt lat="45.71891" lon="4.59913">
        <ele>690.36</ele>
        <time>2014-11-22T15:30:24Z</time>
      </trkpt>
      <trkpt lat="45.71902" lon="4.60053">
        <ele>689.88</ele>
        <time>2014-11-22T15:30:46Z</time>
      </trkpt>
      <trkpt lat="45.71983" lon="4.60123">
        <ele>689.4</ele>
        <time>2014-11-22T15:31:14Z</time>
      </trkpt>
      <trkpt lat="45.72075" lon="4.60141">
        <ele>688.44</ele>
        <time>2014-11-22T15:31:33Z</time>
      </trkpt>
      <trkpt lat="45.72117" lon="4.60258">
        <ele>688.44</ele>
        <time>2014-11-22T15:31:53Z</time>
      </trkpt>
      <trkpt lat="45.72109" lon="4.60395">
        <ele>688.92</ele>
        <time>2014-11-22T15:32:15Z</time>
      </trkpt>
      <trkpt lat="45.72151" lon="4.60519">
        <ele>688.92</ele>
        <time>2014-11-22T15:32:37Z</time>
      </trkpt>
      <trkpt lat="45.72204" lon="4.6063">
        <ele>686.04</ele>
        <time>2014-11-22T15:32:52Z</time>
      </trkpt>
      <trkpt lat="45.72283" lon="4.60701">
        <ele>684.6</ele>
        <time>2014-11-22T15:33:08Z</time>
      </trkpt>
      <trkpt lat="45.72373" lon="4.60721">
        <ele>684.6</ele>
        <time>2014-11-22T15:33:29Z</time>
      </trkpt>
      <trkpt lat="45.72463" lon="4.60745">
        <ele>686.52</ele>
        <time>2014-11-22T15:35:04Z</time>
      </trkpt>
      <trkpt lat="45.72455" lon="4.60882">
        <ele>687</ele>
        <time>2014-11-22T15:35:23Z</time>
      </trkpt>
      <trkpt lat="45.72447" lon="4.61023">
        <ele>686.52</ele>
        <time>2014-11-22T15:35:38Z</time>
      </trkpt>
      <trkpt lat="45.7244" lon="4.61157">
        <ele>685.08</ele>
        <time>2014-11-22T15:35:54Z</time>
      </trkpt>
      <trkpt lat="45.72436" lon="4.61284">
        <ele>684.12</ele>
        <time>2014-11-22T15:37:39Z</time>
      </trkpt>
      <trkpt lat="45.7251" lon="4.61284">
        <ele>681.23</ele>
        <time>2014-11-22T15:38:04Z</time>
      </trkpt>
      <trkpt lat="45.72582" lon="4.61212">
        <ele>680.27</ele>
        <time>2014-11-22T15:38:22Z</time>
      </trkpt>
      <trkpt lat="45.72675" lon="4.61224">
        <ele>679.31</ele>
        <time>2014-11-22T15:38:45Z</time>
      </trkpt>
      <trkpt lat="45.72774" lon="4.61172">
        <ele>676.91</ele>
        <time>2014-11-22T15:39:12Z</time>
      </trkpt>
      <trkpt lat="45.72881" lon="4.61213">
        <ele>679.31</ele>
        <time>2014-11-22T15:39:42Z</time>
      </trkpt>
      <trkpt lat="45.72985" lon="4.61248">
        <ele>673.06</ele>
        <time>2014-11-22T15:40:06Z</time>
      </trkpt>
      <trkpt lat="45.73068" lon="4.61168">
        <ele>675.94</ele>
        <time>2014-11-22T15:40:33Z</time>
      </trkpt>
      <trkpt lat="45.73174" lon="4.61092">
        <ele>678.35</ele>
        <time>2014-11-22T15:41:13Z</time>
      </trkpt>
      <trkpt lat="45.73225" lon="4.61208">
        <ele>677.87</ele>
        <time>2014-11-22T15:42:52Z</time>
      </trkpt>
      <trkpt lat="45.7325" lon="4.61335">
        <ele>676.91</ele>
        <time>2014-11-22T15:43:13Z</time>
      </trkpt>
      <trkpt lat="45.73339" lon="4.61395">
        <ele>671.62</ele>
        <time>2014-11-22T15:43:35Z</time>
      </trkpt>
      <trkpt lat="45.7337" lon="4.61467">
        <ele>673.06</ele>
        <time>2014-11-22T15:44:11Z</time>
      </trkpt>
      <trkpt lat="45.73327" lon="4.61613">
        <ele>671.62</ele>
        <time>2014-11-22T15:44:47Z</time>
      </trkpt>
      <trkpt lat="45.73306" lon="4.61752">
        <ele>672.1</ele>
        <time>2014-11-22T15:45:11Z</time>
      </trkpt>
      <trkpt lat="45.73339" lon="4.61878">
        <ele>673.06</ele>
        <time>2014-11-22T15:45:41Z</time>
      </trkpt>
      <trkpt lat="45.73393" lon="4.6199">
        <ele>674.98</ele>
        <time>2014-11-22T15:46:50Z</time>
      </trkpt>
      <trkpt lat="45.73392" lon="4.62122">
        <ele>669.22</ele>
        <time>2014-11-22T15:47:05Z</time>
      </trkpt>
      <trkpt lat="45.73361" lon="4.62247">
        <ele>664.89</ele>
        <time>2014-11-22T15:47:17Z</time>
      </trkpt>
      <trkpt lat="45.73337" lon="4.62368">
        <ele>648.07</ele>
        <time>2014-11-22T15:47:29Z</time>
      </trkpt>
      <trkpt lat="45.73341" lon="4.62499">
        <ele>628.36</ele>
        <time>2014-11-22T15:47:42Z</time>
      </trkpt>
      <trkpt lat="45.73268" lon="4.62567">
        <ele>620.19</ele>
        <time>2014-11-22T15:48:05Z</time>
      </trkpt>
      <trkpt lat="45.7322" lon="4.62668">
        <ele>620.67</ele>
        <time>2014-11-22T15:51:13Z</time>
      </trkpt>
      <trkpt lat="45.73182" lon="4.62789">
        <ele>621.15</ele>
        <time>2014-11-22T15:51:50Z</time>
      </trkpt>
      <trkpt lat="45.73159" lon="4.62918">
        <ele>614.9</ele>
        <time>2014-11-22T15:52:03Z</time>
      </trkpt>
      <trkpt lat="45.73153" lon="4.63054">
        <ele>611.54</ele>
        <time>2014-11-22T15:52:20Z</time>
      </trkpt>
      <trkpt lat="45.73154" lon="4.63187">
        <ele>608.65</ele>
        <time>2014-11-22T15:52:39Z</time>
      </trkpt>
      <trkpt lat="45.73141" lon="4.63321">
        <ele>607.69</ele>
        <time>2014-11-22T15:52:56Z</time>
      </trkpt>
      <trkpt lat="45.73112" lon="4.63458">
        <ele>605.77</ele>
        <time>2014-11-22T15:53:18Z</time>
      </trkpt>
      <trkpt lat="45.73094" lon="4.63596">
        <ele>597.12</ele>
        <time>2014-11-22T15:53:32Z</time>
      </trkpt>
      <trkpt lat="45.73092" lon="4.63726">
        <ele>594.23</ele>
        <time>2014-11-22T15:53:44Z</time>
      </trkpt>
      <trkpt lat="45.73096" lon="4.63856">
        <ele>585.58</ele>
        <time>2014-11-22T15:53:56Z</time>
      </trkpt>
      <trkpt lat="45.73058" lon="4.63976">
        <ele>577.89</ele>
        <time>2014-11-22T15:54:08Z</time>
      </trkpt>
      <trkpt lat="45.73028" lon="4.64098">
        <ele>567.32</ele>
        <time>2014-11-22T15:54:22Z</time>
      </trkpt>
      <trkpt lat="45.73" lon="4.64226">
        <ele>551.93</ele>
        <time>2014-11-22T15:54:38Z</time>
      </trkpt>
      <trkpt lat="45.73036" lon="4.64346">
        <ele>540.4</ele>
        <time>2014-11-22T15:54:57Z</time>
      </trkpt>
      <trkpt lat="45.73066" lon="4.64465">
        <ele>524.06</ele>
        <time>2014-11-22T15:55:15Z</time>
      </trkpt>
      <trkpt lat="45.73082" lon="4.64576">
        <ele>502.91</ele>
        <time>2014-11-22T15:55:43Z</time>
      </trkpt>
      <trkpt lat="45.73059" lon="4.64657">
        <ele>485.6</ele>
        <time>2014-11-22T15:56:03Z</time>
      </trkpt>
      <trkpt lat="45.72982" lon="4.64722">
        <ele>471.66</ele>
        <time>2014-11-22T15:58:10Z</time>
      </trkpt>
      <trkpt lat="45.72924" lon="4.64797">
        <ele>457.24</ele>
        <time>2014-11-22T15:58:26Z</time>
      </trkpt>
      <trkpt lat="45.72969" lon="4.64882">
        <ele>448.11</ele>
        <time>2014-11-22T15:58:42Z</time>
      </trkpt>
      <trkpt lat="45.73063" lon="4.64905">
        <ele>438.5</ele>
        <time>2014-11-22T15:58:52Z</time>
      </trkpt>
      <trkpt lat="45.73138" lon="4.64984">
        <ele>430.33</ele>
        <time>2014-11-22T15:59:02Z</time>
      </trkpt>
      <trkpt lat="45.73227" lon="4.65044">
        <ele>418.79</ele>
        <time>2014-11-22T15:59:11Z</time>
      </trkpt>
      <trkpt lat="45.73308" lon="4.65108">
        <ele>406.29</ele>
        <time>2014-11-22T15:59:25Z</time>
      </trkpt>
      <trkpt lat="45.73369" lon="4.6521">
        <ele>395.72</ele>
        <time>2014-11-22T15:59:38Z</time>
      </trkpt>
      <trkpt lat="45.73434" lon="4.65305">
        <ele>388.03</ele>
        <time>2014-11-22T15:59:53Z</time>
      </trkpt>
      <trkpt lat="45.73505" lon="4.65366">
        <ele>377.45</ele>
        <time>2014-11-22T16:00:12Z</time>
      </trkpt>
      <trkpt lat="45.73582" lon="4.65419">
        <ele>380.34</ele>
        <time>2014-11-22T16:01:02Z</time>
      </trkpt>
      <trkpt lat="45.73645" lon="4.65521">
        <ele>396.2</ele>
        <time>2014-11-22T16:04:23Z</time>
      </trkpt>
      <trkpt lat="45.73708" lon="4.65622">
        <ele>409.18</ele>
        <time>2014-11-22T16:05:49Z</time>
      </trkpt>
      <trkpt lat="45.73799" lon="4.65669">
        <ele>421.68</ele>
        <time>2014-11-22T16:07:19Z</time>
      </trkpt>
      <trkpt lat="45.73909" lon="4.65714">
        <ele>435.13</ele>
        <time>2014-11-22T16:08:39Z</time>
      </trkpt>
      <trkpt lat="45.73997" lon="4.65667">
        <ele>443.79</ele>
        <time>2014-11-22T16:09:51Z</time>
      </trkpt>
      <trkpt lat="45.74069" lon="4.65589">
        <ele>455.32</ele>
        <time>2014-11-22T16:11:01Z</time>
      </trkpt>
      <trkpt lat="45.74156" lon="4.65629">
        <ele>467.82</ele>
        <time>2014-11-22T16:13:50Z</time>
      </trkpt>
      <trkpt lat="45.7424" lon="4.65681">
        <ele>480.32</ele>
        <time>2014-11-22T16:15:52Z</time>
      </trkpt>
      <trkpt lat="45.74339" lon="4.65702">
        <ele>487.53</ele>
        <time>2014-11-22T16:17:19Z</time>
      </trkpt>
      <trkpt lat="45.74431" lon="4.65694">
        <ele>481.76</ele>
        <time>2014-11-22T16:18:50Z</time>
      </trkpt>
      <trkpt lat="45.74526" lon="4.65682">
        <ele>476.95</ele>
        <time>2014-11-22T16:19:05Z</time>
      </trkpt>
      <trkpt lat="45.74613" lon="4.65713">
        <ele>474.07</ele>
        <time>2014-11-22T16:19:19Z</time>
      </trkpt>
      <trkpt lat="45.74704" lon="4.65747">
        <ele>472.14</ele>
        <time>2014-11-22T16:19:36Z</time>
      </trkpt>
      <trkpt lat="45.74796" lon="4.65775">
        <ele>464.45</ele>
        <time>2014-11-22T16:19:54Z</time>
      </trkpt>
      <trkpt lat="45.74886" lon="4.6578">
        <ele>455.8</ele>
        <time>2014-11-22T16:20:42Z</time>
      </trkpt>
      <trkpt lat="45.74982" lon="4.65779">
        <ele>439.94</ele>
        <time>2014-11-22T16:21:09Z</time>
      </trkpt>
      <trkpt lat="45.75075" lon="4.658">
        <ele>426.48</ele>
        <time>2014-11-22T16:21:45Z</time>
      </trkpt>
      <trkpt lat="45.75166" lon="4.65815">
        <ele>412.06</ele>
        <time>2014-11-22T16:22:26Z</time>
      </trkpt>
      <trkpt lat="45.75261" lon="4.65805">
        <ele>395.72</ele>
        <time>2014-11-22T16:23:18Z</time>
      </trkpt>
      <trkpt lat="45.75347" lon="4.6584">
        <ele>387.07</ele>
        <time>2014-11-22T16:23:36Z</time>
      </trkpt>
      <trkpt lat="45.75422" lon="4.65917">
        <ele>384.66</ele>
        <time>2014-11-22T16:23:51Z</time>
      </trkpt>
      <trkpt lat="45.755" lon="4.65983">
        <ele>385.15</ele>
        <time>2014-11-22T16:24:17Z</time>
      </trkpt>
      <trkpt lat="45.75591" lon="4.66023">
        <ele>390.91</ele>
        <time>2014-11-22T16:25:44Z</time>
      </trkpt>
      <trkpt lat="45.75686" lon="4.66036">
        <ele>397.64</ele>
        <time>2014-11-22T16:26:32Z</time>
      </trkpt>
      <trkpt lat="45.75779" lon="4.66052">
        <ele>397.16</ele>
        <time>2014-11-22T16:27:05Z</time>
      </trkpt>
      <trkpt lat="45.75871" lon="4.66033">
        <ele>393.8</ele>
        <time>2014-11-22T16:27:19Z</time>
      </trkpt>
      <trkpt lat="45.75953" lon="4.65977">
        <ele>394.76</ele>
        <time>2014-11-22T16:27:37Z</time>
      </trkpt>
      <trkpt lat="45.76015" lon="4.65882">
        <ele>394.76</ele>
        <time>2014-11-22T16:27:57Z</time>
      </trkpt>
      <trkpt lat="45.76092" lon="4.65926">
        <ele>399.57</ele>
        <time>2014-11-22T16:28:24Z</time>
      </trkpt>
      <trkpt lat="45.76138" lon="4.6604">
        <ele>405.81</ele>
        <time>2014-11-22T16:29:13Z</time>
      </trkpt>
      <trkpt lat="45.76219" lon="4.66095">
        <ele>413.02</ele>
        <time>2014-11-22T16:30:09Z</time>
      </trkpt>
      <trkpt lat="45.7631" lon="4.661">
        <ele>420.23</ele>
        <time>2014-11-22T16:31:03Z</time>
      </trkpt>
      <trkpt lat="45.76393" lon="4.66044">
        <ele>426</ele>
        <time>2014-11-22T16:31:59Z</time>
      </trkpt>
      <trkpt lat="45.7648" lon="4.66073">
        <ele>428.89</ele>
        <time>2014-11-22T16:32:45Z</time>
      </trkpt>
      <trkpt lat="45.76469" lon="4.66184">
        <ele>426</ele>
        <time>2014-11-22T16:33:09Z</time>
      </trkpt>
      <trkpt lat="45.7644" lon="4.66311">
        <ele>425.52</ele>
        <time>2014-11-22T16:33:28Z</time>
      </trkpt>
      <trkpt lat="45.76406" lon="4.66432">
        <ele>426.48</ele>
        <time>2014-11-22T16:33:47Z</time>
      </trkpt>
      <trkpt lat="45.76375" lon="4.66557">
        <ele>427.44</ele>
        <time>2014-11-22T16:34:09Z</time>
      </trkpt>
      <trkpt lat="45.76343" lon="4.66682">
        <ele>428.89</ele>
        <time>2014-11-22T16:34:33Z</time>
      </trkpt>
    </trkseg>
  </trk>
</gpx>